createdAt,value
2022-12-09T00:00:00.897Z,100107.56
2022-12-09T00:02:27.753Z,100113.22
2022-12-09T00:04:54.715Z,100112.00
2022-12-09T00:07:21.549Z,100118.59
2022-12-09T00:09:48.325Z,100117.50
2022-12-09T00:12:15.093Z,100120.13
2022-12-09T00:14:41.861Z,100130.25
2022-12-09T00:17:08.862Z,100124.34
2022-12-09T00:19:35.801Z,100124.88
2022-12-09T00:22:02.698Z,100129.84
2022-12-09T00:24:29.535Z,100127.25
2022-12-09T00:26:56.506Z,100128.34
2022-12-09T00:29:23.497Z,100123.97
2022-12-09T00:31:50.394Z,100121.84
2022-12-09T00:34:17.168Z,100121.00
2022-12-09T00:36:44.161Z,100127.78
2022-12-09T00:39:12.101Z,100128.63
2022-12-09T00:41:38.941Z,100124.78
2022-12-09T00:44:05.972Z,100124.03
2022-12-09T00:46:33.205Z,100121.91
2022-12-09T00:49:00.197Z,100121.53
2022-12-09T00:51:27.126Z,100114.56
2022-12-09T00:53:54.827Z,100115.00
2022-12-09T00:56:22.005Z,100106.34
2022-12-09T00:58:48.784Z,100119.50
2022-12-09T01:01:15.716Z,100119.00
2022-12-09T01:03:42.705Z,100123.03
2022-12-09T01:06:09.665Z,100129.16
2022-12-09T01:08:39.159Z,100121.66
2022-12-09T01:11:06.473Z,100121.91
2022-12-09T01:13:33.257Z,100124.81
2022-12-09T01:16:00.066Z,100125.28
2022-12-09T01:18:26.932Z,100125.53
2022-12-09T01:20:53.710Z,100128.88
2022-12-09T01:23:20.723Z,100127.91
2022-12-09T01:25:47.592Z,100137.34
2022-12-09T01:28:14.615Z,100131.72
2022-12-09T01:30:41.410Z,100131.81
2022-12-09T01:33:08.293Z,100139.47
2022-12-09T01:35:35.168Z,100133.19
2022-12-09T01:38:02.584Z,100143.44
2022-12-09T01:40:29.442Z,100136.09
2022-12-09T01:42:56.517Z,100150.84
2022-12-09T01:45:23.545Z,100141.63
2022-12-09T01:47:50.665Z,100143.81
2022-12-09T01:50:17.656Z,100154.59
2022-12-09T01:52:44.694Z,100149.38
2022-12-09T01:55:11.725Z,100145.22
2022-12-09T01:57:38.693Z,100145.59
2022-12-09T02:00:06.162Z,100138.31
2022-12-09T02:02:33.708Z,100144.25
2022-12-09T02:05:00.998Z,100139.00
2022-12-09T02:07:28.190Z,100137.00
2022-12-09T02:09:55.102Z,100133.25
2022-12-09T02:12:22.061Z,100133.19
2022-12-09T02:14:48.833Z,100130.38
2022-12-09T02:17:16.131Z,100120.94
2022-12-09T02:19:43.146Z,100121.41
2022-12-09T02:22:10.214Z,100126.81
2022-12-09T02:24:37.022Z,100125.88
2022-12-09T02:27:03.871Z,100123.22
2022-12-09T02:29:30.761Z,100125.44
2022-12-09T02:31:57.932Z,100126.41
2022-12-09T02:34:25.042Z,100111.03
2022-12-09T02:36:51.865Z,100115.00
2022-12-09T02:39:18.712Z,100119.94
2022-12-09T02:41:45.578Z,100123.63
2022-12-09T02:44:12.557Z,100113.34
2022-12-09T02:46:39.620Z,100115.50
2022-12-09T02:49:06.724Z,100120.13
2022-12-09T02:51:33.664Z,100110.09
2022-12-09T02:54:03.300Z,100109.72
2022-12-09T02:56:30.352Z,100112.00
2022-12-09T02:58:57.114Z,100109.47
2022-12-09T03:01:24.019Z,100109.44
2022-12-09T03:03:51.003Z,100104.81
2022-12-09T03:06:17.931Z,100110.00
2022-12-09T03:08:44.822Z,100120.63
2022-12-09T03:11:11.995Z,100120.53
2022-12-09T03:13:39.220Z,100113.47
2022-12-09T03:16:06.295Z,100117.56
2022-12-09T03:18:33.449Z,100101.00
2022-12-09T03:21:00.306Z,100110.91
2022-12-09T03:23:27.081Z,100106.75
2022-12-09T03:25:53.946Z,100110.25
2022-12-09T03:28:20.826Z,100107.75
2022-12-09T03:30:47.666Z,100102.25
2022-12-09T03:33:14.566Z,100098.75
2022-12-09T03:35:41.477Z,100095.16
2022-12-09T03:38:08.530Z,100096.38
2022-12-09T03:40:35.324Z,100101.72
2022-12-09T03:43:02.406Z,100109.97
2022-12-09T03:45:29.529Z,100096.53
2022-12-09T03:47:56.448Z,100099.50
2022-12-09T03:50:24.539Z,100103.63
2022-12-09T03:52:51.295Z,100098.38
2022-12-09T03:55:19.343Z,100094.03
2022-12-09T03:57:46.376Z,100090.66
2022-12-09T04:00:13.575Z,100084.03
2022-12-09T04:02:40.796Z,100089.41
2022-12-09T04:05:08.006Z,100087.41
2022-12-09T04:07:34.889Z,100096.03
2022-12-09T04:10:01.937Z,100094.84
2022-12-09T04:12:29.143Z,100090.53
2022-12-09T04:14:55.954Z,100089.69
2022-12-09T04:17:22.932Z,100094.69
2022-12-09T04:19:50.450Z,100089.31
2022-12-09T04:22:17.555Z,100089.53
2022-12-09T04:24:44.670Z,100093.25
2022-12-09T04:27:11.939Z,100098.13
2022-12-09T04:29:39.813Z,100090.22
2022-12-09T04:32:06.948Z,100090.38
2022-12-09T04:34:33.997Z,100088.66
2022-12-09T04:37:01.014Z,100088.41
2022-12-09T04:39:28.242Z,100084.81
2022-12-09T04:41:55.800Z,100083.06
2022-12-09T04:44:22.747Z,100083.69
2022-12-09T04:46:49.979Z,100077.84
2022-12-09T04:49:16.923Z,100082.91
2022-12-09T04:51:43.941Z,100080.75
2022-12-09T04:54:11.131Z,100082.66
2022-12-09T04:56:38.258Z,100086.81
2022-12-09T04:59:05.461Z,100079.53
2022-12-09T05:01:32.676Z,100076.06
2022-12-09T05:04:00.033Z,100072.56
2022-12-09T05:06:27.500Z,100081.03
2022-12-09T05:08:54.984Z,100073.16
2022-12-09T05:11:23.941Z,100069.78
2022-12-09T05:13:51.403Z,100064.47
2022-12-09T05:16:18.385Z,100066.34
2022-12-09T05:18:45.749Z,100068.06
2022-12-09T05:21:13.094Z,100075.50
2022-12-09T05:23:40.081Z,100079.53
2022-12-09T05:26:07.054Z,100080.78
2022-12-09T05:28:34.502Z,100079.50
2022-12-09T05:31:01.679Z,100092.53
2022-12-09T05:33:28.645Z,100086.81
2022-12-09T05:35:55.726Z,100084.09
2022-12-09T05:38:22.599Z,100081.81
2022-12-09T05:40:49.759Z,100093.53
2022-12-09T05:43:16.717Z,100082.75
2022-12-09T05:45:43.867Z,100093.88
2022-12-09T05:48:10.699Z,100090.16
2022-12-09T05:50:37.863Z,100083.09
2022-12-09T05:53:05.084Z,100090.00
2022-12-09T05:55:32.452Z,100084.72
2022-12-09T05:57:59.667Z,100083.41
2022-12-09T06:00:26.823Z,100076.69
2022-12-09T06:02:54.219Z,100079.88
2022-12-09T06:05:21.884Z,100085.34
2022-12-09T06:07:49.031Z,100080.63
2022-12-09T06:10:16.589Z,100084.44
2022-12-09T06:12:44.225Z,100081.16
2022-12-09T06:15:13.533Z,100082.03
2022-12-09T06:17:44.717Z,100077.53
2022-12-09T06:20:12.032Z,100076.00
2022-12-09T06:22:39.215Z,100079.53
2022-12-09T06:25:06.166Z,100071.53
2022-12-09T06:27:33.286Z,100082.53
2022-12-09T06:30:00.590Z,100084.91
2022-12-09T06:32:27.966Z,100080.25
2022-12-09T06:34:55.236Z,100078.78
2022-12-09T06:37:22.452Z,100073.00
2022-12-09T06:39:49.746Z,100078.41
2022-12-09T06:42:16.744Z,100070.63
2022-12-09T06:44:44.297Z,100079.75
2022-12-09T06:47:11.222Z,100073.16
2022-12-09T06:49:38.493Z,100070.94
2022-12-09T06:52:05.704Z,100078.56
2022-12-09T06:54:32.846Z,100073.44
2022-12-09T06:56:59.682Z,100079.22
2022-12-09T06:59:26.944Z,100069.59
2022-12-09T07:01:54.385Z,100074.84
2022-12-09T07:04:23.034Z,100079.78
2022-12-09T07:06:50.345Z,100087.41
2022-12-09T07:09:17.814Z,100085.28
2022-12-09T07:11:47.070Z,100086.38
2022-12-09T07:14:14.311Z,100087.28
2022-12-09T07:16:42.198Z,100084.28
2022-12-09T07:19:09.569Z,100087.50
2022-12-09T07:21:36.737Z,100089.88
2022-12-09T07:24:03.894Z,100090.84
2022-12-09T07:26:31.349Z,100088.56
2022-12-09T07:28:58.392Z,100081.47
2022-12-09T07:31:25.664Z,100078.03
2022-12-09T07:33:53.508Z,100085.41
2022-12-09T07:36:21.786Z,100080.00
2022-12-09T07:38:49.600Z,100096.06
2022-12-09T07:41:20.194Z,100091.19
2022-12-09T07:43:47.457Z,100096.59
2022-12-09T07:46:14.382Z,100094.84
2022-12-09T07:48:41.681Z,100105.22
2022-12-09T07:51:08.683Z,100108.34
2022-12-09T07:53:36.612Z,100100.91
2022-12-09T07:56:04.019Z,100100.06
2022-12-09T07:58:31.174Z,100104.00
2022-12-09T08:00:58.514Z,100104.00
2022-12-09T08:03:25.426Z,100106.38
2022-12-09T08:05:52.774Z,100106.00
2022-12-09T08:08:20.120Z,100111.88
2022-12-09T08:10:47.671Z,100111.28
2022-12-09T08:13:14.754Z,100116.69
2022-12-09T08:15:41.652Z,100118.69
2022-12-09T08:18:08.685Z,100117.78
2022-12-09T08:20:35.724Z,100120.28
2022-12-09T08:23:03.502Z,100121.16
2022-12-09T08:25:30.848Z,100118.28
2022-12-09T08:27:57.849Z,100119.78
2022-12-09T08:30:25.251Z,100121.84
2022-12-09T08:32:52.479Z,100112.38
2022-12-09T08:35:19.623Z,100112.25
2022-12-09T08:37:46.573Z,100120.75
2022-12-09T08:40:14.339Z,100128.63
2022-12-09T08:42:41.852Z,100126.09
2022-12-09T08:45:09.262Z,100120.47
2022-12-09T08:47:36.379Z,100114.28
2022-12-09T08:50:03.377Z,100119.50
2022-12-09T08:52:33.138Z,100118.91
2022-12-09T08:55:04.100Z,100123.03
2022-12-09T08:57:30.893Z,100119.66
2022-12-09T08:59:57.862Z,100124.06
2022-12-09T09:02:24.836Z,100127.22
2022-12-09T09:04:52.756Z,100123.22
2022-12-09T09:07:20.201Z,100115.31
2022-12-09T09:09:47.208Z,100125.50
2022-12-09T09:12:14.224Z,100127.56
2022-12-09T09:14:41.211Z,100123.97
2022-12-09T09:17:08.516Z,100127.78
2022-12-09T09:19:35.909Z,100120.25
2022-12-09T09:22:02.901Z,100119.66
2022-12-09T09:24:30.825Z,100122.63
2022-12-09T09:26:58.164Z,100128.97
2022-12-09T09:29:25.489Z,100117.59
2022-12-09T09:31:56.222Z,100121.28
2022-12-09T09:34:23.367Z,100119.75
2022-12-09T09:36:51.403Z,100127.63
2022-12-09T09:39:18.781Z,100123.75
2022-12-09T09:41:45.717Z,100130.69
2022-12-09T09:44:13.451Z,100126.09
2022-12-09T09:46:40.725Z,100121.94
2022-12-09T09:49:07.810Z,100120.91
2022-12-09T09:51:35.059Z,100118.91
2022-12-09T09:54:08.127Z,100111.09
2022-12-09T09:56:36.076Z,100111.09
2022-12-09T09:59:03.467Z,100104.16
2022-12-09T10:01:30.675Z,100097.22
2022-12-09T10:03:58.108Z,100092.91
2022-12-09T10:06:26.143Z,100099.47
2022-12-09T10:08:57.187Z,100094.91
2022-12-09T10:11:24.708Z,100090.38
2022-12-09T10:13:52.102Z,100086.28
2022-12-09T10:16:19.989Z,100080.72
2022-12-09T10:18:47.178Z,100084.59
2022-12-09T10:21:14.371Z,100082.47
2022-12-09T10:23:41.265Z,100074.78
2022-12-09T10:26:08.755Z,100073.63
2022-12-09T10:28:35.877Z,100075.06
2022-12-09T10:31:03.329Z,100072.72
2022-12-09T10:33:30.623Z,100069.72
2022-12-09T10:35:57.667Z,100074.41
2022-12-09T10:38:24.853Z,100074.06
2022-12-09T10:40:53.013Z,100070.00
2022-12-09T10:43:35.223Z,100063.78
2022-12-09T10:46:19.493Z,100065.41
2022-12-09T10:48:47.589Z,100064.44
2022-12-09T10:51:15.086Z,100066.56
2022-12-09T10:53:42.009Z,100060.72
2022-12-09T10:56:09.190Z,100049.19
2022-12-09T10:58:36.060Z,100049.16
2022-12-09T11:01:03.107Z,100052.22
2022-12-09T11:03:30.593Z,100048.25
2022-12-09T11:05:58.077Z,100050.00
2022-12-09T11:08:25.497Z,100048.22
2022-12-09T11:10:52.768Z,100052.75
2022-12-09T11:13:19.678Z,100047.41
2022-12-09T11:15:46.960Z,100041.47
2022-12-09T11:18:14.121Z,100037.03
2022-12-09T11:20:41.148Z,100041.22
2022-12-09T11:23:08.337Z,100038.34
2022-12-09T11:25:35.358Z,100043.81
2022-12-09T11:28:02.625Z,100033.78
2022-12-09T11:30:29.866Z,100039.81
2022-12-09T11:32:57.722Z,100037.78
2022-12-09T11:35:24.975Z,100031.47
2022-12-09T11:37:51.867Z,100028.75
2022-12-09T11:40:18.695Z,100030.13
2022-12-09T11:42:45.431Z,100028.50
2022-12-09T11:45:12.213Z,100024.75
2022-12-09T11:50:25.887Z,100024.50
2022-12-09T11:52:52.626Z,100028.41
2022-12-09T11:55:19.432Z,100030.69
2022-12-09T11:57:46.215Z,100029.75
2022-12-09T12:00:13.011Z,100025.09
2022-12-09T12:02:39.803Z,100028.44
2022-12-09T12:05:06.580Z,100030.81
2022-12-09T12:07:33.360Z,100028.28
2022-12-09T12:10:00.125Z,100024.41
2022-12-09T12:12:26.883Z,100018.31
2022-12-09T12:14:53.645Z,100032.38
2022-12-09T12:17:20.588Z,100026.63
2022-12-09T12:19:47.377Z,100023.72
2022-12-09T12:22:14.194Z,100020.19
2022-12-09T12:24:40.922Z,100025.13
2022-12-09T12:27:07.663Z,100019.41
2022-12-09T12:29:34.389Z,100012.31
2022-12-09T12:32:01.200Z,100017.91
2022-12-09T12:34:28.031Z,100009.81
2022-12-09T12:36:54.755Z,100009.69
2022-12-09T12:39:21.483Z,100007.34
2022-12-09T12:41:48.228Z,100011.00
2022-12-09T12:44:33.807Z,100010.63
2022-12-09T12:47:00.677Z,100013.00
2022-12-09T12:49:27.446Z,100012.59
2022-12-09T12:51:54.730Z,100010.06
2022-12-09T12:54:21.524Z,100010.66
2022-12-09T12:56:48.248Z,100008.59
2022-12-09T12:59:14.975Z,100012.78
2022-12-09T13:01:41.773Z,100013.72
2022-12-09T13:04:08.664Z,100002.47
2022-12-09T13:06:35.384Z,100011.25
2022-12-09T13:09:03.404Z,100009.34
2022-12-09T13:11:30.289Z,100010.38
2022-12-09T13:13:57.061Z,100010.06
2022-12-09T13:16:23.877Z,100006.72
2022-12-09T13:18:50.784Z,100009.94
2022-12-09T13:21:17.544Z,100007.53
2022-12-09T13:23:44.362Z,100004.28
2022-12-09T13:26:11.153Z,100007.00
2022-12-09T13:28:37.954Z,100004.00
2022-12-09T13:31:04.820Z,100009.72
2022-12-09T13:33:31.580Z,99993.28
2022-12-09T13:35:58.331Z,99998.66
2022-12-09T13:38:25.075Z,99994.50
2022-12-09T13:40:51.809Z,100001.69
2022-12-09T13:43:18.619Z,99997.25
2022-12-09T13:45:45.433Z,100001.03
2022-12-09T13:48:16.830Z,100004.41
2022-12-09T13:50:44.000Z,100004.97
2022-12-09T13:53:11.052Z,99998.81
2022-12-09T13:55:37.857Z,100011.25
2022-12-09T13:58:04.778Z,100012.06
2022-12-09T14:00:31.583Z,100013.50
2022-12-09T14:02:58.544Z,100011.09
2022-12-09T14:05:28.206Z,100005.84
2022-12-09T14:07:54.992Z,100006.19
2022-12-09T14:10:21.887Z,100019.91
2022-12-09T14:12:48.625Z,100029.91
2022-12-09T14:15:15.371Z,100014.94
2022-12-09T14:17:42.146Z,100011.28
2022-12-09T14:20:09.154Z,100014.94
2022-12-09T14:22:36.220Z,100008.84
2022-12-09T14:25:03.029Z,100013.59
2022-12-09T14:27:29.773Z,100011.72
2022-12-09T14:29:56.576Z,100010.13
2022-12-09T14:32:23.296Z,100013.03
2022-12-09T14:34:50.104Z,100017.94
2022-12-09T14:37:16.849Z,100019.63
2022-12-09T14:39:43.707Z,100015.19
2022-12-09T14:42:10.522Z,100007.41
2022-12-09T14:44:37.302Z,100001.19
2022-12-09T14:47:06.795Z,100007.72
2022-12-09T14:49:42.790Z,100000.41
2022-12-09T14:52:15.344Z,100007.44
2022-12-09T14:54:42.071Z,100000.69
2022-12-09T14:57:12.874Z,100008.25
2022-12-09T14:59:42.591Z,99998.97
2022-12-09T15:02:09.416Z,100009.53
2022-12-09T15:04:36.347Z,100000.75
2022-12-09T15:07:03.369Z,100007.75
2022-12-09T15:09:30.096Z,100009.22
2022-12-09T15:11:56.842Z,100008.03
2022-12-09T15:14:27.151Z,100008.50
2022-12-09T15:16:53.894Z,100009.81
2022-12-09T15:19:43.781Z,100017.31
2022-12-09T15:22:07.403Z,100011.34
2022-12-09T15:24:49.210Z,100020.34
2022-12-09T15:27:16.771Z,100019.59
2022-12-09T15:29:43.500Z,100026.28
2022-12-09T15:32:10.263Z,100025.25
2022-12-09T15:34:37.019Z,100022.13
2022-12-09T15:37:03.921Z,100019.22
2022-12-09T15:39:30.753Z,100015.88
2022-12-09T15:42:06.973Z,100018.84
2022-12-09T15:44:33.843Z,100016.91
2022-12-09T15:47:02.499Z,100010.41
2022-12-09T15:49:31.077Z,100018.16
2022-12-09T15:51:57.826Z,100014.47
2022-12-09T15:54:24.995Z,100015.69
2022-12-09T15:56:52.133Z,100026.38
2022-12-09T15:59:19.030Z,100028.66
2022-12-09T16:01:45.902Z,100024.56
2022-12-09T16:04:12.762Z,100027.66
2022-12-09T16:06:39.531Z,100028.81
2022-12-09T16:09:06.268Z,100027.38
2022-12-09T16:11:33.125Z,100035.50
2022-12-09T16:13:59.852Z,100034.59
2022-12-09T16:16:26.734Z,100035.94
2022-12-09T16:18:54.646Z,100036.88
2022-12-09T16:21:21.468Z,100044.59
2022-12-09T16:23:48.240Z,100040.84
2022-12-09T16:26:15.150Z,100036.31
2022-12-09T16:28:41.908Z,100040.25
2022-12-09T16:31:08.661Z,100031.91
2022-12-09T16:33:35.440Z,100037.19
2022-12-09T16:36:02.206Z,100035.47
2022-12-09T16:38:29.225Z,100036.19
2022-12-09T16:40:56.030Z,100034.47
2022-12-09T16:43:22.815Z,100029.22
2022-12-09T16:45:49.603Z,100037.81
2022-12-09T16:48:17.164Z,100036.69
2022-12-09T16:50:44.010Z,100031.03
2022-12-09T16:53:10.783Z,100039.91
2022-12-09T16:55:37.523Z,100035.94
2022-12-09T16:58:04.303Z,100035.25
2022-12-09T17:00:31.116Z,100038.38
2022-12-09T17:02:57.872Z,100041.72
2022-12-09T17:05:24.635Z,100032.50
2022-12-09T17:07:51.437Z,100031.06
2022-12-09T17:10:18.231Z,100031.78
2022-12-09T17:12:44.986Z,100035.00
2022-12-09T17:15:11.750Z,100034.06
2022-12-09T17:17:38.565Z,100030.91
2022-12-09T17:20:05.516Z,100042.59
2022-12-09T17:22:32.364Z,100037.19
2022-12-09T17:24:59.172Z,100042.06
2022-12-09T17:27:25.938Z,100034.84
2022-12-09T17:29:52.752Z,100036.41
2022-12-09T17:32:19.597Z,100038.63
2022-12-09T17:34:46.329Z,100037.47
2022-12-09T17:37:13.058Z,100043.72
2022-12-09T17:39:39.813Z,100041.59
2022-12-09T17:42:06.547Z,100045.59
2022-12-09T17:44:33.322Z,100043.13
2022-12-09T17:47:00.105Z,100047.34
2022-12-09T17:49:27.015Z,100040.53
2022-12-09T17:51:53.792Z,100036.16
2022-12-09T17:54:20.535Z,100047.75
2022-12-09T17:56:47.297Z,100048.59
2022-12-09T17:59:14.029Z,100043.13
2022-12-09T18:01:46.987Z,100043.47
2022-12-09T18:04:13.777Z,100053.03
2022-12-09T18:06:40.571Z,100048.09
2022-12-09T18:09:07.356Z,100053.47
2022-12-09T18:11:34.132Z,100061.72
2022-12-09T18:14:00.888Z,100065.53
2022-12-09T18:16:27.716Z,100065.25
2022-12-09T18:18:54.477Z,100063.69
2022-12-09T18:21:21.244Z,100061.97
2022-12-09T18:23:48.173Z,100069.53
2022-12-09T18:26:14.959Z,100065.97
2022-12-09T18:28:41.696Z,100065.13
2022-12-09T18:31:08.672Z,100066.53
2022-12-09T18:33:35.457Z,100069.41
2022-12-09T18:36:02.480Z,100063.41
2022-12-09T18:38:29.266Z,100071.88
2022-12-09T18:41:01.906Z,100068.06
2022-12-09T18:43:28.732Z,100065.94
2022-12-09T18:45:55.524Z,100071.19
2022-12-09T18:48:22.305Z,100074.41
2022-12-09T18:50:49.072Z,100078.94
2022-12-09T18:53:15.869Z,100074.16
2022-12-09T18:55:42.612Z,100071.03
2022-12-09T18:58:09.340Z,100068.25
2022-12-09T19:00:36.101Z,100067.88
2022-12-09T19:03:02.890Z,100072.16
2022-12-09T19:05:29.851Z,100070.97
2022-12-09T19:07:56.694Z,100074.19
2022-12-09T19:10:23.438Z,100070.81
2022-12-09T19:12:56.409Z,100077.72
2022-12-09T19:15:23.356Z,100068.63
2022-12-09T19:17:50.109Z,100072.72
2022-12-09T19:20:17.021Z,100092.19
2022-12-09T19:22:43.755Z,100091.38
2022-12-09T19:25:10.514Z,100087.53
2022-12-09T19:27:37.296Z,100103.53
2022-12-09T19:30:04.066Z,100103.53
2022-12-09T19:32:52.444Z,100104.84
2022-12-09T19:35:17.673Z,100108.88
2022-12-09T19:37:44.461Z,100109.72
2022-12-09T19:40:11.228Z,100109.88
2022-12-09T19:42:39.639Z,100109.03
2022-12-09T19:45:10.436Z,100100.09
2022-12-09T19:47:38.991Z,100114.78
2022-12-09T19:50:06.150Z,100114.81
2022-12-09T19:52:33.185Z,100113.81
2022-12-09T19:54:59.914Z,100123.03
2022-12-09T19:57:26.844Z,100123.78
2022-12-09T19:59:53.598Z,100114.38
2022-12-09T20:02:20.467Z,100113.81
2022-12-09T20:04:49.224Z,100112.63
2022-12-09T20:07:16.734Z,100111.34
2022-12-09T20:09:43.478Z,100109.41
2022-12-09T20:12:10.289Z,100115.97
2022-12-09T20:14:37.025Z,100113.91
2022-12-09T20:17:03.771Z,100117.38
2022-12-09T20:19:31.369Z,100116.88
2022-12-09T20:21:58.198Z,100115.44
2022-12-09T20:24:24.936Z,100115.50
2022-12-09T20:26:51.715Z,100107.25
2022-12-09T20:29:18.482Z,100116.84
2022-12-09T20:31:45.273Z,100121.44
2022-12-09T20:34:12.073Z,100127.09
2022-12-09T20:36:38.839Z,100122.84
2022-12-09T20:39:05.643Z,100130.56
2022-12-09T20:41:32.467Z,100122.16
2022-12-09T20:43:59.239Z,100129.47
2022-12-09T20:46:26.043Z,100131.72
2022-12-09T20:48:52.827Z,100121.59
2022-12-09T20:51:19.623Z,100119.53
2022-12-09T20:53:46.381Z,100129.09
2022-12-09T20:56:13.268Z,100123.00
2022-12-09T20:58:40.094Z,100133.25
2022-12-09T21:01:06.978Z,100137.72
2022-12-09T21:03:33.901Z,100135.06
2022-12-09T21:06:00.672Z,100137.25
2022-12-09T21:08:31.457Z,100133.59
2022-12-09T21:10:59.177Z,100128.50
2022-12-09T21:13:25.925Z,100124.34
2022-12-09T21:15:52.746Z,100137.13
2022-12-09T21:18:19.532Z,100135.34
2022-12-09T21:20:46.469Z,100130.97
2022-12-09T21:23:33.418Z,100127.81
2022-12-09T21:25:59.909Z,100132.56
2022-12-09T21:28:26.927Z,100130.78
2022-12-09T21:30:53.710Z,100132.69
2022-12-09T21:33:20.483Z,100127.91
2022-12-09T21:35:47.655Z,100127.28
2022-12-09T21:38:14.613Z,100132.22
2022-12-09T21:40:41.372Z,100127.41
2022-12-09T21:43:08.089Z,100134.41
2022-12-09T21:45:34.875Z,100130.16
2022-12-09T21:48:01.709Z,100135.84
2022-12-09T21:50:28.503Z,100148.13
2022-12-09T21:52:55.242Z,100147.63
2022-12-09T21:55:22.030Z,100144.97
2022-12-09T21:57:48.804Z,100145.63
2022-12-09T22:00:15.602Z,100139.81
2022-12-09T22:02:44.304Z,100145.34
2022-12-09T22:05:11.075Z,100145.09
2022-12-09T22:07:37.873Z,100150.59
2022-12-09T22:10:04.739Z,100153.97
2022-12-09T22:12:31.597Z,100158.50
2022-12-09T22:14:58.402Z,100162.44
2022-12-09T22:17:25.281Z,100159.56
2022-12-09T22:20:07.733Z,100164.59
2022-12-09T22:22:39.012Z,100162.28
2022-12-09T22:25:05.744Z,100158.59
2022-12-09T22:27:32.512Z,100159.09
2022-12-09T22:29:59.252Z,100156.22
2022-12-09T22:32:25.963Z,100155.41
2022-12-09T22:34:52.690Z,100158.03
2022-12-09T22:37:42.328Z,100163.94
2022-12-09T22:40:06.567Z,100168.38
2022-12-09T22:42:33.649Z,100169.16
2022-12-09T22:45:00.425Z,100162.72
2022-12-09T22:47:27.433Z,100169.00
2022-12-09T22:49:54.170Z,100156.94
2022-12-09T22:52:20.964Z,100169.13
2022-12-09T22:54:47.771Z,100168.63
2022-12-09T22:57:14.514Z,100167.34
2022-12-09T22:59:43.060Z,100173.31
2022-12-09T23:02:10.147Z,100176.63
2022-12-09T23:04:37.475Z,100172.69
2022-12-09T23:07:04.194Z,100163.97
2022-12-09T23:09:31.268Z,100155.03
2022-12-09T23:11:58.035Z,100166.44
2022-12-09T23:14:24.781Z,100163.81
2022-12-09T23:16:51.505Z,100162.75
2022-12-09T23:19:18.256Z,100158.84
2022-12-09T23:21:45.061Z,100164.16
2022-12-09T23:24:11.796Z,100154.41
2022-12-09T23:26:39.205Z,100156.31
2022-12-09T23:29:05.998Z,100156.69
2022-12-09T23:31:32.813Z,100152.75
2022-12-09T23:33:59.709Z,100163.06
2022-12-09T23:36:26.474Z,100158.50
2022-12-09T23:38:53.304Z,100154.56
2022-12-09T23:41:20.084Z,100156.69
2022-12-09T23:43:46.935Z,100153.94
2022-12-09T23:46:16.008Z,100157.38
2022-12-09T23:48:42.985Z,100150.00
2022-12-09T23:51:10.368Z,100155.69
2022-12-09T23:53:37.086Z,100150.91
2022-12-09T23:56:03.864Z,100154.69
2022-12-09T23:58:30.581Z,100169.25
